Time;durP1;ratioP1;P1;durP2;ratioP2;P2;SDS_P1;SDS_P2;PMS_P1;PMS_P2;Temp;Humidity;BMP_temperature;BMP_pressure;BME280_temperature;BME280_humidity;BME280_pressure;Samples;Min_cycle;Max_cycle;Signal;HPM_P1;HPM_P2
2021/08/20 00:01:36;;;;;;;;;;;15.70;99.90;;;;;;5110978;28;19962;-69
2021/08/20 00:04:03;;;;;;;;;;;15.70;99.90;;;;;;5109885;28;20386;-71
2021/08/20 00:06:30;;;;;;;;;;;15.60;99.90;;;;;;5111083;28;19959;-70
2021/08/20 00:08:57;;;;;;;;;;;15.60;99.90;;;;;;5110299;28;19977;-71
2021/08/20 00:11:24;;;;;;;;;;;15.60;99.90;;;;;;5111701;28;19973;-69
2021/08/20 00:13:50;;;;;;;;;;;15.60;99.90;;;;;;5111384;28;20020;-69
2021/08/20 00:16:18;;;;;;;;;;;15.60;99.90;;;;;;5110324;28;19954;-69
2021/08/20 00:18:45;;;;;;;;;;;15.60;99.90;;;;;;5110164;28;20421;-70
2021/08/20 00:21:12;;;;;;;;;;;15.60;99.90;;;;;;5110233;28;19981;-73
2021/08/20 00:23:39;;;;;;;;;;;15.60;99.90;;;;;;5107201;28;20027;-69
2021/08/20 00:26:05;;;;;;;;;;;15.60;99.90;;;;;;5111346;28;20038;-69
2021/08/20 00:28:32;;;;;;;;;;;15.60;99.90;;;;;;5111357;28;19954;-71
2021/08/20 00:30:59;;;;;;;;;;;15.70;99.90;;;;;;5110629;28;20380;-68
2021/08/20 00:33:27;;;;;;;;;;;15.70;99.90;;;;;;5109480;28;19953;-70
2021/08/20 00:35:54;;;;;;;;;;;15.70;99.90;;;;;;5111034;28;19958;-71
2021/08/20 00:38:21;;;;;;;;;;;15.70;99.90;;;;;;5109665;28;19957;-69
2021/08/20 00:40:49;;;;;;;;;;;15.70;99.90;;;;;;5108613;27;20053;-70
2021/08/20 00:43:16;;;;;;;;;;;15.70;99.90;;;;;;5110395;28;20696;-69
2021/08/20 00:45:52;;;;;;;;;;;15.70;99.90;;;;;;5110596;27;19957;-68
2021/08/20 00:48:19;;;;;;;;;;;15.80;99.90;;;;;;5110791;28;19961;-70
2021/08/20 00:50:48;;;;;;;;;;;15.70;99.90;;;;;;5109961;28;19927;-67
2021/08/20 00:53:14;;;;;;;;;;;15.70;99.90;;;;;;5108728;28;19923;-69
2021/08/20 00:55:41;;;;;;;;;;;15.70;99.90;;;;;;5108786;28;19949;-68
2021/08/20 00:58:09;;;;;;;;;;;15.70;99.90;;;;;;5109935;28;19958;-71
2021/08/20 01:00:40;;;;;;;;;;;15.70;99.90;;;;;;5108857;28;20715;-68
2021/08/20 01:03:06;;;;;;;;;;;15.60;99.90;;;;;;5110637;28;19969;-69
2021/08/20 01:05:34;;;;;;;;;;;15.60;99.90;;;;;;5109053;28;20039;-68
2021/08/20 01:08:03;;;;;;;;;;;15.70;99.90;;;;;;5108399;28;19962;-71
2021/08/20 01:10:29;;;;;;;;;;;15.70;99.90;;;;;;5109954;28;19954;-67
2021/08/20 01:12:56;;;;;;;;;;;15.70;99.90;;;;;;5107588;28;19949;-66
2021/08/20 01:15:23;;;;;;;;;;;15.70;99.90;;;;;;5110315;28;20321;-69
2021/08/20 01:17:52;;;;;;;;;;;15.70;99.90;;;;;;5107221;27;20508;-70
2021/08/20 01:20:20;;;;;;;;;;;15.70;99.90;;;;;;5108442;28;20216;-69
2021/08/20 01:22:46;;;;;;;;;;;15.70;99.90;;;;;;5108823;28;19999;-68
2021/08/20 01:25:17;;;;;;;;;;;15.70;99.90;;;;;;5107439;28;19954;-71
2021/08/20 01:27:44;;;;;;;;;;;15.70;99.90;;;;;;5108595;28;19953;-69
2021/08/20 01:30:12;;;;;;;;;;;15.70;99.90;;;;;;5107687;28;19997;-69
2021/08/20 01:32:41;;;;;;;;;;;15.70;99.90;;;;;;5108083;28;19950;-69
2021/08/20 01:35:08;;;;;;;;;;;15.70;99.90;;;;;;5107685;27;19999;-68
2021/08/20 01:37:35;;;;;;;;;;;15.80;99.90;;;;;;5109460;28;19923;-72
2021/08/20 01:40:05;;;;;;;;;;;15.80;99.90;;;;;;5106067;28;19923;-70
2021/08/20 01:42:33;;;;;;;;;;;15.80;99.90;;;;;;5107579;28;19920;-68
2021/08/20 01:44:59;;;;;;;;;;;15.80;99.90;;;;;;5106350;28;19953;-69
2021/08/20 01:47:29;;;;;;;;;;;15.80;99.90;;;;;;5107209;28;19957;-68
2021/08/20 01:49:55;;;;;;;;;;;15.80;99.90;;;;;;5108426;28;19954;-70
2021/08/20 01:52:22;;;;;;;;;;;15.80;99.90;;;;;;5108655;28;19961;-70
2021/08/20 01:54:49;;;;;;;;;;;15.80;99.90;;;;;;5108318;27;19953;-71
2021/08/20 01:57:15;;;;;;;;;;;15.70;99.90;;;;;;5104399;28;19973;-72
2021/08/20 01:59:43;;;;;;;;;;;15.70;99.90;;;;;;5107191;28;19953;-68
2021/08/20 02:02:12;;;;;;;;;;;15.70;99.90;;;;;;5107728;27;19980;-67
2021/08/20 02:04:39;;;;;;;;;;;15.70;99.90;;;;;;5106692;28;20383;-68
2021/08/20 02:07:06;;;;;;;;;;;15.70;99.90;;;;;;5109528;28;19953;-69
2021/08/20 02:09:32;;;;;;;;;;;15.70;99.90;;;;;;5106892;28;19973;-67
2021/08/20 02:11:59;;;;;;;;;;;15.70;99.90;;;;;;5107982;28;19954;-71
2021/08/20 02:14:27;;;;;;;;;;;15.70;99.90;;;;;;5107192;28;19961;-70
2021/08/20 02:16:59;;;;;;;;;;;15.70;99.90;;;;;;5107787;28;19965;-70
2021/08/20 02:19:26;;;;;;;;;;;15.70;99.90;;;;;;5107594;28;20022;-71
2021/08/20 02:21:52;;;;;;;;;;;15.70;99.90;;;;;;5106686;28;19997;-71
2021/08/20 02:24:25;;;;;;;;;;;15.70;99.90;;;;;;5107440;28;19958;-69
2021/08/20 02:26:51;;;;;;;;;;;15.80;99.90;;;;;;5107325;28;20003;-67
2021/08/20 02:29:18;;;;;;;;;;;15.80;99.90;;;;;;5107496;28;20038;-71
2021/08/20 02:31:46;;;;;;;;;;;15.80;99.90;;;;;;5107368;28;19963;-68
2021/08/20 02:34:16;;;;;;;;;;;15.80;99.90;;;;;;5107142;28;19958;-69
2021/08/20 02:36:43;;;;;;;;;;;15.80;99.90;;;;;;5107117;28;19950;-67
2021/08/20 02:39:10;;;;;;;;;;;15.80;99.90;;;;;;5104863;28;19958;-71
2021/08/20 02:41:36;;;;;;;;;;;15.80;99.90;;;;;;5106546;28;19951;-69
2021/08/20 02:44:03;;;;;;;;;;;15.80;99.90;;;;;;5105325;28;20452;-69
2021/08/20 02:46:32;;;;;;;;;;;15.80;99.90;;;;;;5107557;28;19997;-68
2021/08/20 02:49:00;;;;;;;;;;;15.90;99.90;;;;;;5107836;28;20375;-68
2021/08/20 02:51:29;;;;;;;;;;;15.90;99.90;;;;;;5108483;28;19953;-67
2021/08/20 02:53:58;;;;;;;;;;;15.90;99.90;;;;;;5107651;28;19950;-69
2021/08/20 02:56:25;;;;;;;;;;;15.90;99.90;;;;;;5105056;28;19954;-68
2021/08/20 02:58:57;;;;;;;;;;;15.90;99.90;;;;;;5105611;28;20024;-71
2021/08/20 03:01:24;;;;;;;;;;;15.90;99.90;;;;;;5104548;28;19993;-67
2021/08/20 03:03:52;;;;;;;62.75;28.90;;;15.90;99.90;;;;;;5105800;28;20568;-69
2021/08/20 03:06:22;;;;;;;57.70;29.55;;;16.00;99.90;;;;;;5106268;28;20201;-68
2021/08/20 03:08:51;;;;;;;61.55;29.15;;;15.90;99.90;;;;;;5108507;28;20333;-69
2021/08/20 03:11:18;;;;;;;66.70;30.05;;;16.00;99.90;;;;;;5107100;28;20291;-68
2021/08/20 03:13:45;;;;;;;65.28;30.00;;;16.00;99.90;;;;;;5106350;28;20225;-69
2021/08/20 03:16:12;;;;;;;57.88;28.67;;;16.00;99.90;;;;;;5106680;28;20207;-66
2021/08/20 03:18:41;;;;;;;65.53;30.08;;;16.00;99.90;;;;;;5106308;28;20201;-69
2021/08/20 03:21:14;;;;;;;67.90;29.35;;;16.00;99.90;;;;;;5104555;28;20946;-66
2021/08/20 03:23:55;;;;;;;73.55;30.38;;;16.10;99.90;;;;;;5107402;28;20876;-68
2021/08/20 03:26:23;;;;;;;71.50;30.75;;;16.10;99.90;;;;;;5106777;28;20246;-71
2021/08/20 03:28:58;;;;;;;60.55;29.63;;;16.10;99.90;;;;;;5106002;28;20295;-69
2021/08/20 03:31:25;;;;;;;69.53;30.75;;;16.10;99.90;;;;;;5106784;28;20293;-70
2021/08/20 03:33:55;;;;;;;63.42;30.08;;;16.10;99.90;;;;;;5105969;28;20692;-68
2021/08/20 03:36:21;;;;;;;;;;;16.10;99.90;;;;;;5108458;28;20022;-68
2021/08/20 03:38:52;;;;;;;;;;;16.20;99.90;;;;;;5107188;28;19958;-67
2021/08/20 03:41:20;;;;;;;;;;;16.20;99.90;;;;;;5106738;28;19959;-69
2021/08/20 03:44:04;;;;;;;;;;;16.20;99.90;;;;;;5106689;28;19985;-68
2021/08/20 03:46:35;;;;;;;;;;;16.20;99.90;;;;;;5105371;28;20016;-70
2021/08/20 03:49:03;;;;;;;72.93;28.42;;;16.30;99.90;;;;;;5105427;28;20181;-68
2021/08/20 03:51:30;;;;;;;61.72;27.45;;;16.30;99.90;;;;;;5106753;28;20206;-71
2021/08/20 03:53:58;;;;;;;70.82;27.75;;;16.30;99.90;;;;;;5109195;28;20243;-68
2021/08/20 03:56:26;;;;;;;61.35;26.60;;;16.30;99.90;;;;;;5109741;28;20225;-70
2021/08/20 03:59:18;;;;;;;55.25;26.73;;;16.30;99.90;;;;;;5108165;28;20578;-67
2021/08/20 04:01:44;;;;;;;61.47;27.08;;;16.30;99.90;;;;;;5107477;28;20194;-73
2021/08/20 04:04:12;;;;;;;62.53;27.45;;;16.40;99.90;;;;;;5107037;28;20277;-70
2021/08/20 04:06:46;;;;;;;55.05;25.83;;;16.40;99.90;;;;;;5108245;27;20203;-68
2021/08/20 04:09:14;;;;;;;66.25;26.77;;;16.40;99.90;;;;;;5107252;28;20738;-70
2021/08/20 04:11:48;;;;;;;63.42;26.10;;;16.40;99.90;;;;;;5109926;28;20867;-72
2021/08/20 04:14:44;;;;;;;;;;;16.40;99.90;;;;;;5105342;28;20734;-70
2021/08/20 04:17:11;;;;;;;;;;;16.40;99.90;;;;;;5107930;27;19999;-68
2021/08/20 04:19:40;;;;;;;;;;;16.50;99.90;;;;;;5108877;28;19997;-70
2021/08/20 04:22:07;;;;;;;70.60;26.05;;;16.50;99.90;;;;;;5106974;28;20498;-65
2021/08/20 04:24:37;;;;;;;;;;;16.50;99.90;;;;;;5109133;28;19989;-68
2021/08/20 04:27:27;;;;;;;;;;;16.50;99.90;;;;;;5108945;28;19967;-70
2021/08/20 04:30:18;;;;;;;;;;;16.50;99.90;;;;;;5107590;28;20439;-70
2021/08/20 04:32:48;;;;;;;;;;;16.50;99.90;;;;;;5107883;28;19960;-69
2021/08/20 04:35:26;;;;;;;;;;;16.50;99.90;;;;;;5109095;28;19967;-68
2021/08/20 04:38:11;;;;;;;;;;;16.50;99.90;;;;;;5108065;28;19987;-68
2021/08/20 04:41:00;;;;;;;;;;;16.50;99.90;;;;;;5108351;28;20435;-69
2021/08/20 04:43:43;;;;;;;;;;;16.60;99.90;;;;;;5107965;28;19963;-67
2021/08/20 04:46:25;;;;;;;52.60;23.30;;;16.60;99.90;;;;;;5106254;28;20395;-69
2021/08/20 04:49:12;;;;;;;55.45;21.45;;;16.60;99.90;;;;;;5107222;28;20468;-69
2021/08/20 04:52:17;;;;;;;50.97;21.30;;;16.60;99.90;;;;;;5065037;28;20347;-71
2021/08/20 04:54:58;;;;;;;43.42;21.27;;;16.60;99.90;;;;;;5047861;28;20693;-72
2021/08/20 04:57:25;;;;;;;;;;;16.70;99.90;;;;;;5087766;28;20107;-68
2021/08/20 04:59:53;;;;;;;;;;;16.70;99.90;;;;;;5107684;28;20002;-70
2021/08/20 05:02:20;;;;;;;;;;;16.70;99.90;;;;;;5107550;27;20181;-71
2021/08/20 05:04:47;;;;;;;;;;;16.70;99.90;;;;;;5106446;28;20054;-71
2021/08/20 05:07:14;;;;;;;;;;;16.70;99.90;;;;;;5109317;28;19961;-71
2021/08/20 05:09:41;;;;;;;;;;;16.80;99.90;;;;;;5106769;27;20455;-70
2021/08/20 05:12:10;;;;;;;52.30;20.33;;;16.80;99.90;;;;;;5105671;28;20311;-69
2021/08/20 05:14:37;;;;;;;43.03;18.95;;;16.80;99.90;;;;;;5108398;28;20208;-70
2021/08/20 05:17:05;;;;;;;43.33;19.15;;;16.80;99.90;;;;;;5108371;27;20217;-70
2021/08/20 05:19:32;;;;;;;;;;;16.90;99.90;;;;;;5108232;28;20603;-69
2021/08/20 05:21:58;;;;;;;;;;;16.90;99.90;;;;;;5108350;28;19990;-69
2021/08/20 05:24:25;;;;;;;;;;;16.90;99.90;;;;;;5106820;28;20519;-69
2021/08/20 05:26:52;;;;;;;;;;;16.90;99.90;;;;;;5105768;28;20077;-70
2021/08/20 05:29:18;;;;;;;;;;;16.90;99.90;;;;;;5106461;28;20040;-70
2021/08/20 05:31:45;;;;;;;;;;;17.00;99.90;;;;;;5107881;28;20817;-70
2021/08/20 05:34:13;;;;;;;43.55;15.93;;;17.00;99.90;;;;;;5107488;28;20237;-70
2021/08/20 05:36:40;;;;;;;48.45;18.30;;;17.00;99.90;;;;;;5106460;27;20243;-70
2021/08/20 05:39:06;;;;;;;;;;;17.10;99.90;;;;;;5105970;27;25105;-71
2021/08/20 05:41:33;;;;;;;37.03;16.10;;;17.10;99.90;;;;;;5106292;28;20411;-70
2021/08/20 05:44:00;;;;;;;45.23;15.87;;;17.10;99.90;;;;;;5107675;28;20673;-71
2021/08/20 05:46:27;;;;;;;;;;;17.20;99.90;;;;;;5107279;28;19972;-69
2021/08/20 05:48:53;;;;;;;;;;;17.20;99.90;;;;;;5107166;28;19987;-71
2021/08/20 05:51:22;;;;;;;;;;;17.20;99.90;;;;;;5107759;28;20483;-71
2021/08/20 05:53:48;;;;;;;;;;;17.30;99.90;;;;;;5104779;28;19960;-71
2021/08/20 05:56:15;;;;;;;;;;;17.30;99.90;;;;;;5105905;28;19960;-70
2021/08/20 05:58:41;;;;;;;;;;;17.40;99.90;;;;;;5107593;28;19962;-70
2021/08/20 06:01:08;;;;;;;34.42;14.75;;;17.40;99.90;;;;;;5107213;28;20212;-68
2021/08/20 06:03:35;;;;;;;35.83;14.23;;;17.40;99.90;;;;;;5106133;28;20599;-71
2021/08/20 06:06:13;;;;;;;31.67;13.98;;;17.40;99.90;;;;;;5104553;28;20596;-71
2021/08/20 06:08:41;;;;;;;37.63;14.35;;;17.40;99.90;;;;;;5105778;28;20204;-70
2021/08/20 06:11:09;;;;;;;36.08;14.02;;;17.40;99.90;;;;;;5106285;28;20266;-70
2021/08/20 06:13:36;;;;;;;33.45;13.45;;;17.40;99.90;;;;;;5106104;28;20208;-69
2021/08/20 06:16:02;;;;;;;35.13;14.30;;;17.40;99.90;;;;;;5106400;28;20320;-71
2021/08/20 06:18:29;;;;;;;34.78;13.13;;;17.40;99.90;;;;;;5107396;28;20201;-70
2021/08/20 06:20:56;;;;;;;32.92;12.60;;;17.50;99.90;;;;;;5106324;28;20213;-70
2021/08/20 06:23:23;;;;;;;28.60;12.02;;;17.50;99.90;;;;;;5108094;28;20249;-70
2021/08/20 06:25:52;;;;;;;36.65;13.00;;;17.50;99.90;;;;;;5107355;28;20284;-69
2021/08/20 06:28:19;;;;;;;24.75;12.20;;;17.50;99.90;;;;;;5104779;28;20201;-69
2021/08/20 06:30:47;;;;;;;;;;;17.60;99.90;;;;;;5104948;28;20119;-69
2021/08/20 06:33:14;;;;;;;32.00;12.38;;;17.60;99.90;;;;;;5106487;28;20467;-71
2021/08/20 06:35:41;;;;;;;30.20;11.90;;;17.70;99.90;;;;;;5106852;28;20572;-71
2021/08/20 06:38:08;;;;;;;27.33;12.13;;;17.70;99.90;;;;;;5106429;28;20239;-73
2021/08/20 06:40:35;;;;;;;22.45;10.73;;;17.80;99.90;;;;;;5104936;28;20205;-71
2021/08/20 06:43:03;;;;;;;;;;;17.90;99.90;;;;;;5107326;28;20066;-70
2021/08/20 06:45:30;;;;;;;;;;;18.00;99.90;;;;;;5106760;28;20406;-70
2021/08/20 06:47:57;;;;;;;24.55;8.48;;;18.20;99.90;;;;;;5106647;28;20620;-71
2021/08/20 06:50:23;;;;;;;21.05;8.00;;;18.20;99.90;;;;;;5107029;28;20241;-72
2021/08/20 06:52:50;;;;;;;16.60;6.95;;;18.30;99.90;;;;;;5107379;28;20381;-72
2021/08/20 06:55:17;;;;;;;;;;;18.40;99.90;;;;;;5123449;27;20692;-71
2021/08/20 06:57:44;;;;;;;;;;;18.40;99.90;;;;;;5106521;28;19962;-73
2021/08/20 07:00:12;;;;;;;14.25;7.18;;;18.40;99.90;;;;;;5106082;28;20258;-73
2021/08/20 07:02:43;;;;;;;;;;;18.40;99.90;;;;;;5106527;28;20205;-73
2021/08/20 07:05:10;;;;;;;;;;;18.40;99.90;;;;;;5106760;28;19964;-72
2021/08/20 07:07:37;;;;;;;;;;;18.40;99.90;;;;;;5106302;28;20009;-70
2021/08/20 07:10:07;;;;;;;17.00;7.90;;;18.40;99.90;;;;;;5104464;28;20193;-72
2021/08/20 07:12:34;;;;;;;17.02;7.40;;;18.40;99.90;;;;;;5107061;28;20205;-71
2021/08/20 07:15:00;;;;;;;17.52;7.28;;;18.40;99.90;;;;;;5107258;28;20673;-71
2021/08/20 07:17:28;;;;;;;;;;;18.40;99.90;;;;;;5106843;28;20691;-71
2021/08/20 07:19:55;;;;;;;16.35;7.20;;;18.40;99.90;;;;;;5107452;28;20431;-71
2021/08/20 07:22:22;;;;;;;14.48;6.72;;;18.50;99.90;;;;;;5107518;28;20066;-72
2021/08/20 07:24:49;;;;;;;;;;;18.60;99.90;;;;;;5107221;28;20099;-71
2021/08/20 07:27:15;;;;;;;15.85;5.78;;;18.80;99.90;;;;;;5109020;28;20255;-70
2021/08/20 07:29:42;;;;;;;13.95;6.13;;;18.90;99.90;;;;;;5110954;28;20189;-72
2021/08/20 07:32:09;;;;;;;10.95;5.85;;;19.10;99.90;;;;;;5111633;28;20208;-70
2021/08/20 07:34:38;;;;;;;12.63;5.28;;;19.20;99.90;;;;;;5110067;28;20201;-70
2021/08/20 07:37:05;;;;;;;9.43;4.80;;;19.20;99.90;;;;;;5111345;28;20283;-70
2021/08/20 07:39:33;;;;;;;9.60;5.45;;;19.30;99.90;;;;;;5111054;27;20212;-70
2021/08/20 07:42:00;;;;;;;15.02;5.13;;;19.30;99.90;;;;;;5111278;28;20231;-70
2021/08/20 07:44:27;;;;;;;13.98;4.55;;;19.30;99.90;;;;;;5110945;28;20201;-70
2021/08/20 07:46:53;;;;;;;8.07;4.47;;;19.30;99.90;;;;;;5110637;28;20209;-71
2021/08/20 07:49:20;;;;;;;14.73;5.00;;;19.40;99.90;;;;;;5111343;28;20250;-71
2021/08/20 07:51:48;;;;;;;11.85;5.10;;;19.40;99.90;;;;;;5111571;28;20197;-70
2021/08/20 07:54:15;;;;;;;9.85;4.70;;;19.40;99.90;;;;;;5110989;28;20201;-71
2021/08/20 07:56:42;;;;;;;8.38;4.45;;;19.50;99.90;;;;;;5110178;28;20258;-72
2021/08/20 07:59:09;;;;;;;11.73;5.43;;;19.40;99.90;;;;;;5110030;28;20673;-71
2021/08/20 08:01:36;;;;;;;9.13;5.30;;;19.40;99.90;;;;;;5109865;28;20258;-70
2021/08/20 08:04:03;;;;;;;9.07;5.60;;;19.40;99.90;;;;;;5110719;28;20205;-70
2021/08/20 08:06:30;;;;;;;11.20;5.20;;;19.40;99.90;;;;;;5110233;28;20193;-70
2021/08/20 08:08:59;;;;;;;8.18;4.63;;;19.40;99.90;;;;;;5108479;28;20677;-70
2021/08/20 08:11:30;;;;;;;7.80;4.72;;;19.30;99.90;;;;;;5110596;28;20252;-71
2021/08/20 08:14:02;;;;;;;9.23;5.13;;;19.30;99.90;;;;;;5110479;27;20197;-71
2021/08/20 08:16:29;;;;;;;;;;;19.40;99.90;;;;;;5110727;28;20078;-71
2021/08/20 08:18:56;;;;;;;;;;;19.50;99.90;;;;;;5109045;28;20010;-71
2021/08/20 08:21:22;;;;;;;;;;;19.60;99.90;;;;;;5110789;28;20110;-70
2021/08/20 08:23:49;;;;;;;10.00;5.03;;;19.70;99.90;;;;;;5110503;28;20275;-70
2021/08/20 08:26:17;;;;;;;9.77;4.63;;;19.80;99.90;;;;;;5111046;28;20168;-71
2021/08/20 08:28:44;;;;;;;;;;;19.90;99.90;;;;;;5111125;28;20119;-70
2021/08/20 08:31:11;;;;;;;8.23;3.90;;;20.00;99.90;;;;;;5110124;28;20256;-72
2021/08/20 08:33:38;;;;;;;5.60;3.35;;;20.20;99.90;;;;;;5110140;27;20204;-70
2021/08/20 08:36:05;;;;;;;5.15;3.20;;;20.30;99.90;;;;;;5107262;28;20286;-71
2021/08/20 08:38:32;;;;;;;5.82;3.15;;;20.50;99.90;;;;;;5109230;28;20258;-71
2021/08/20 08:40:58;;;;;;;5.85;2.75;;;20.70;99.90;;;;;;5108159;27;20252;-70
2021/08/20 08:43:26;;;;;;;4.63;3.00;;;20.80;99.90;;;;;;5108993;27;20201;-71
2021/08/20 08:45:55;;;;;;;6.22;3.00;;;20.90;99.90;;;;;;5108250;28;20279;-73
2021/08/20 08:48:23;;;;;;;6.70;2.50;;;21.10;99.90;;;;;;5109778;28;20209;-70
2021/08/20 08:50:50;;;;;;;;;;;21.30;99.90;;;;;;5108882;28;20298;-72
2021/08/20 08:53:19;;;;;;;8.02;2.67;;;21.50;99.90;;;;;;5108916;28;20225;-70
2021/08/20 08:55:49;;;;;;;6.50;2.25;;;21.90;99.90;;;;;;5109804;28;20193;-70
2021/08/20 08:58:16;;;;;;;4.97;2.13;;;22.40;99.90;;;;;;5109474;28;20225;-70
2021/08/20 09:00:44;;;;;;;6.75;2.20;;;22.90;99.90;;;;;;5105026;27;20197;-72
2021/08/20 09:03:23;;;;;;;7.50;2.35;;;23.40;99.90;;;;;;5108877;28;20253;-72
2021/08/20 09:05:49;;;;;;;4.28;2.20;;;23.60;99.90;;;;;;5107164;28;20567;-72
2021/08/20 09:08:19;;;;;;;4.07;1.90;;;23.80;99.90;;;;;;5109308;28;20262;-72
2021/08/20 09:10:51;;;;;;;4.72;1.90;;;24.10;99.90;;;;;;5108904;28;20205;-71
2021/08/20 09:13:18;;;;;;;4.07;2.15;;;24.40;99.90;;;;;;5108765;28;20209;-71
2021/08/20 09:15:47;;;;;;;2.92;1.63;;;24.60;99.90;;;;;;5109184;28;20270;-70
2021/08/20 09:18:22;;;;;;;6.45;1.90;;;24.80;99.90;;;;;;5108349;28;21022;-72
2021/08/20 09:20:50;;;;;;;3.85;1.60;;;24.90;98.10;;;;;;5107847;28;20204;-70
2021/08/20 09:23:22;;;;;;;3.15;1.52;;;25.00;97.50;;;;;;5109019;28;20213;-70
2021/08/20 09:25:49;;;;;;;3.22;1.90;;;24.90;96.30;;;;;;5108194;28;20269;-70
2021/08/20 09:28:18;;;;;;;2.78;1.35;;;25.00;96.00;;;;;;5123407;27;20217;-73
2021/08/20 09:30:59;;;;;;;9.02;1.77;;;25.40;95.30;;;;;;5108216;28;20720;-71
2021/08/20 09:33:29;;;;;;;5.72;2.10;;;25.80;94.50;;;;;;5109345;28;20197;-72
2021/08/20 09:35:58;;;;;;;4.32;1.70;;;26.10;94.10;;;;;;5108143;28;20244;-70
2021/08/20 09:38:26;;;;;;;4.38;1.73;;;26.50;93.40;;;;;;5108008;28;20607;-71
2021/08/20 09:40:56;;;;;;;5.40;1.73;;;26.50;92.50;;;;;;5109079;27;20265;-70
2021/08/20 09:43:27;;;;;;;4.25;1.60;;;26.70;92.10;;;;;;5106255;28;20228;-71
2021/08/20 09:46:02;;;;;;;;;;;27.20;91.10;;;;;;5108958;28;20224;-71
2021/08/20 09:48:43;;;;;;;5.70;1.95;;;27.60;89.60;;;;;;5107053;28;20463;-71
2021/08/20 09:51:11;;;;;;;6.15;1.33;;;28.00;87.20;;;;;;5108151;28;20205;-71
2021/08/20 09:53:38;;;;;;;4.22;1.20;;;28.40;85.40;;;;;;5108290;28;20204;-69
2021/08/20 09:56:06;;;;;;;4.28;1.42;;;29.00;82.60;;;;;;5108525;28;20258;-71
2021/08/20 09:58:35;;;;;;;5.40;1.58;;;29.60;79.00;;;;;;5106952;28;20257;-70
2021/08/20 10:01:05;;;;;;;4.88;1.42;;;30.00;76.70;;;;;;5106785;28;20204;-69
2021/08/20 10:03:33;;;;;;;5.15;1.60;;;30.30;73.90;;;;;;5107109;28;20200;-69
2021/08/20 10:06:01;;;;;;;5.85;1.40;;;30.40;72.20;;;;;;5107895;28;20708;-72
2021/08/20 10:08:30;;;;;;;3.38;1.20;;;30.60;70.70;;;;;;5107603;27;20892;-68
2021/08/20 10:10:59;;;;;;;3.78;1.40;;;30.90;69.70;;;;;;5108746;28;20209;-73
2021/08/20 10:13:27;;;;;;;3.28;1.35;;;30.90;67.40;;;;;;5107114;28;20254;-70
2021/08/20 10:15:59;;;;;;;3.58;1.20;;;30.90;67.10;;;;;;5108278;28;20216;-72
2021/08/20 10:18:28;;;;;;;5.68;1.92;;;30.90;66.00;;;;;;5104731;28;20257;-70
2021/08/20 10:20:56;;;;;;;3.45;1.98;;;30.70;66.00;;;;;;5108229;27;20220;-70
2021/08/20 10:23:24;;;;;;;3.70;1.40;;;30.60;66.10;;;;;;5107948;28;20673;-71
2021/08/20 10:25:54;;;;;;;5.82;1.33;;;30.60;65.30;;;;;;5108033;28;20216;-70
2021/08/20 10:28:21;;;;;;;2.20;1.20;;;30.50;65.20;;;;;;5108354;28;20204;-71
2021/08/20 10:30:49;;;;;;;5.95;1.75;;;30.50;65.60;;;;;;5106905;28;20204;-70
2021/08/20 10:33:29;;;;;;;3.90;1.40;;;30.50;64.80;;;;;;5108021;28;20208;-70
2021/08/20 10:35:58;;;;;;;5.60;1.80;;;30.50;64.60;;;;;;5103944;27;19958;-70
2021/08/20 10:38:26;;;;;;;4.10;1.60;;;30.30;64.40;;;;;;5108263;28;20212;-71
2021/08/20 10:41:18;;;;;;;6.05;1.70;;;30.00;64.80;;;;;;5107220;28;20672;-70
2021/08/20 10:43:50;;;;;;;4.93;1.50;;;29.70;65.00;;;;;;5092901;28;20215;-71
2021/08/20 10:47:17;;;;;;;4.85;1.63;;;29.20;66.20;;;;;;5105075;28;20593;-70
2021/08/20 10:49:45;;;;;;;5.97;1.35;;;28.70;67.40;;;;;;5105592;28;20215;-70
2021/08/20 10:52:28;;;;;;;4.85;1.80;;;28.30;68.90;;;;;;5105309;28;20220;-70
2021/08/20 10:55:17;;;;;;;6.75;1.50;;;28.10;69.30;;;;;;5106065;28;20200;-70
2021/08/20 10:58:13;;;;;;;5.63;1.70;;;28.10;69.90;;;;;;5107609;28;20225;-70
2021/08/20 11:00:42;;;;;;;3.67;1.42;;;28.00;69.70;;;;;;5105325;28;20201;-71
2021/08/20 11:03:10;;;;;;;6.22;1.73;;;28.10;70.50;;;;;;5106858;28;20205;-71
2021/08/20 11:05:48;;;;;;;7.82;2.03;;;28.30;70.60;;;;;;5105270;28;20200;-70
2021/08/20 11:08:49;;;;;;;7.05;2.25;;;28.90;69.80;;;;;;5107019;28;20253;-70
2021/08/20 11:11:44;;;;;;;3.53;1.60;;;29.50;68.70;;;;;;5107735;28;20247;-71
2021/08/20 11:14:37;;;;;;;3.88;1.45;;;30.40;67.40;;;;;;5107014;28;20725;-71
2021/08/20 11:17:05;;;;;;;5.03;1.60;;;31.30;64.80;;;;;;5107386;28;20227;-72
2021/08/20 11:19:55;;;;;;;6.65;1.83;;;31.60;61.80;;;;;;5105400;28;20211;-70
2021/08/20 11:22:30;;;;;;;4.65;1.50;;;31.50;60.20;;;;;;5106207;28;20208;-71
2021/08/20 11:25:26;;;;;;;4.75;1.40;;;31.40;60.70;;;;;;5106869;28;20656;-72
2021/08/20 11:28:01;;;;;;;6.13;1.77;;;31.30;60.20;;;;;;5107359;28;20196;-70
2021/08/20 11:30:29;;;;;;;;;;;31.40;60.20;;;;;;5105323;28;21056;-70
2021/08/20 11:33:16;;;;;;;;;;;31.40;59.40;;;;;;5106605;28;20061;-72
2021/08/20 11:35:46;;;;;;;6.43;1.73;;;31.40;59.00;;;;;;5106608;28;20162;-71
2021/08/20 11:38:19;;;;;;;6.55;1.90;;;31.00;59.20;;;;;;5107390;28;21098;-70
2021/08/20 11:40:48;;;;;;;;;;;30.80;59.80;;;;;;5107375;28;20246;-70
2021/08/20 11:43:16;;;;;;;4.70;1.58;;;30.80;60.50;;;;;;5107406;28;20058;-71
2021/08/20 11:45:43;;;;;;;6.47;1.73;;;30.70;60.60;;;;;;5106521;28;20201;-70
2021/08/20 11:48:10;;;;;;;5.38;2.00;;;30.70;60.90;;;;;;5107309;28;20731;-70
2021/08/20 11:50:37;;;;;;;3.95;1.65;;;30.90;60.70;;;;;;5107490;28;20204;-71
2021/08/20 11:53:04;;;;;;;2.97;1.52;;;31.30;60.00;;;;;;5106438;28;21026;-71
2021/08/20 11:55:31;;;;;;;8.63;1.85;;;31.70;59.00;;;;;;5107582;28;20572;-71
2021/08/20 11:57:59;;;;;;;6.57;1.67;;;32.10;58.10;;;;;;5105458;28;20270;-70
2021/08/20 12:00:38;;;;;;;7.75;1.50;;;32.50;57.10;;;;;;5104369;28;20696;-70
2021/08/20 12:03:09;;;;;;;3.90;1.50;;;32.90;55.50;;;;;;5106217;28;20658;-71
2021/08/20 12:05:36;;;;;;;3.42;1.30;;;33.20;54.60;;;;;;5107092;28;20217;-73
2021/08/20 12:08:17;;;;;;;6.70;1.80;;;33.20;53.50;;;;;;5107163;28;20246;-72
2021/08/20 12:10:45;;;;;;;6.18;1.98;;;32.90;53.70;;;;;;5107315;28;20196;-73
2021/08/20 12:13:14;;;;;;;6.50;1.70;;;32.70;53.60;;;;;;5106838;28;20230;-71
2021/08/20 12:15:42;;;;;;;8.57;1.83;;;32.40;53.80;;;;;;5110661;28;20204;-71
2021/08/20 12:18:22;;;;;;;5.50;1.80;;;32.40;54.30;;;;;;5109912;28;20273;-71
2021/08/20 12:20:50;;;;;;;6.53;1.83;;;32.40;54.80;;;;;;5107514;28;20204;-71
2021/08/20 12:23:17;;;;;;;7.07;1.65;;;32.50;54.60;;;;;;5110209;28;20753;-71
2021/08/20 12:25:44;;;;;;;4.05;1.52;;;32.40;54.00;;;;;;5110407;28;20239;-71
2021/08/20 12:28:14;;;;;;;5.95;1.75;;;32.30;53.80;;;;;;5110157;28;20250;-72
2021/08/20 12:30:42;;;;;;;6.18;1.70;;;32.10;53.60;;;;;;5109023;27;20355;-71
2021/08/20 12:33:10;;;;;;;4.18;1.58;;;31.80;53.80;;;;;;5109335;28;20207;-71
2021/08/20 12:35:37;;;;;;;5.45;1.67;;;31.70;54.30;;;;;;5109795;28;20598;-72
2021/08/20 12:38:07;;;;;;;9.27;1.60;;;31.80;54.60;;;;;;5110137;28;20224;-70
2021/08/20 12:40:36;;;;;;;6.70;1.40;;;31.90;54.00;;;;;;5108464;28;20239;-70
2021/08/20 12:43:03;;;;;;;4.38;1.50;;;32.10;54.10;;;;;;5110065;28;20739;-69
2021/08/20 12:45:32;;;;;;;5.03;1.90;;;32.30;53.80;;;;;;5109484;28;20266;-71
2021/08/20 12:48:04;;;;;;;4.78;1.52;;;32.50;52.80;;;;;;5109177;28;20204;-72
2021/08/20 12:50:31;;;;;;;6.50;2.20;;;32.40;52.60;;;;;;5109427;27;20201;-71
2021/08/20 12:53:01;;;;;;;;;;;32.20;53.00;;;;;;5109468;28;20397;-70
2021/08/20 12:55:31;;;;;;;5.80;2.45;;;32.10;53.80;;;;;;5109867;28;20376;-71
2021/08/20 12:57:59;;;;;;;4.78;2.50;;;32.10;54.00;;;;;;5109978;28;20236;-70
2021/08/20 13:00:29;;;;;;;6.47;2.30;;;32.10;53.30;;;;;;5109712;28;20277;-70
2021/08/20 13:02:58;;;;;;;8.90;2.10;;;32.10;53.20;;;;;;5107366;28;20238;-70
2021/08/20 13:05:24;;;;;;;7.60;2.00;;;32.00;53.10;;;;;;5108563;28;20402;-70
2021/08/20 13:07:51;;;;;;;6.18;2.10;;;31.90;53.10;;;;;;5109301;28;20220;-71
2021/08/20 13:10:19;;;;;;;6.65;2.28;;;31.80;53.20;;;;;;5107784;28;20208;-72
2021/08/20 13:12:46;;;;;;;6.03;2.30;;;31.50;53.60;;;;;;5107472;27;20204;-70
2021/08/20 13:15:15;;;;;;;;;;;31.20;54.30;;;;;;5109735;28;20304;-73
2021/08/20 13:17:42;;;;;;;6.10;2.35;;;31.10;55.10;;;;;;5108276;28;20436;-72
2021/08/20 13:20:13;;;;;;;6.03;2.28;;;31.00;55.70;;;;;;5109477;28;20656;-73
2021/08/20 13:22:44;;;;;;;6.40;2.38;;;30.80;56.30;;;;;;5108878;28;20208;-71
2021/08/20 13:25:11;;;;;;;8.00;2.40;;;30.80;56.70;;;;;;5108324;28;20281;-72
2021/08/20 13:27:38;;;;;;;8.50;2.20;;;30.70;56.90;;;;;;5108768;27;20800;-70
2021/08/20 13:30:06;;;;;;;3.75;1.98;;;30.40;56.90;;;;;;5108140;27;20713;-71
2021/08/20 13:32:33;;;;;;;6.50;2.00;;;30.20;57.20;;;;;;5109029;28;20292;-69